sensor_id;sensor_type;location;lat;lon;timestamp;P1;durP1;ratioP1;P2;durP2;ratioP2
25481;SDS011;13395;50.752;4.268;2022-12-13T00:01:30;66.47;;;30.10;;
25481;SDS011;13395;50.752;4.268;2022-12-13T00:03:58;82.53;;;31.13;;
25481;SDS011;13395;50.752;4.268;2022-12-13T00:06:26;70.70;;;29.70;;
25481;SDS011;13395;50.752;4.268;2022-12-13T00:08:52;73.88;;;30.27;;
25481;SDS011;13395;50.752;4.268;2022-12-13T00:11:19;79.60;;;30.13;;
25481;SDS011;13395;50.752;4.268;2022-12-13T00:13:46;69.28;;;29.77;;
25481;SDS011;13395;50.752;4.268;2022-12-13T00:16:18;67.53;;;28.45;;
25481;SDS011;13395;50.752;4.268;2022-12-13T00:18:55;74.75;;;29.67;;
25481;SDS011;13395;50.752;4.268;2022-12-13T00:21:23;63.58;;;28.70;;
25481;SDS011;13395;50.752;4.268;2022-12-13T00:23:51;69.68;;;29.20;;
25481;SDS011;13395;50.752;4.268;2022-12-13T00:26:18;69.50;;;28.60;;
25481;SDS011;13395;50.752;4.268;2022-12-13T00:28:45;70.20;;;28.60;;
25481;SDS011;13395;50.752;4.268;2022-12-13T00:31:13;62.28;;;27.83;;
25481;SDS011;13395;50.752;4.268;2022-12-13T00:33:39;64.65;;;27.50;;
25481;SDS011;13395;50.752;4.268;2022-12-13T00:36:05;63.80;;;26.15;;
25481;SDS011;13395;50.752;4.268;2022-12-13T00:38:33;65.25;;;26.42;;
25481;SDS011;13395;50.752;4.268;2022-12-13T00:41:08;65.55;;;28.52;;
25481;SDS011;13395;50.752;4.268;2022-12-13T00:43:40;53.00;;;25.30;;
25481;SDS011;13395;50.752;4.268;2022-12-13T00:46:10;60.97;;;26.67;;
25481;SDS011;13395;50.752;4.268;2022-12-13T00:48:39;58.67;;;24.33;;
25481;SDS011;13395;50.752;4.268;2022-12-13T00:51:05;55.33;;;22.98;;
25481;SDS011;13395;50.752;4.268;2022-12-13T00:53:32;47.78;;;21.50;;
25481;SDS011;13395;50.752;4.268;2022-12-13T00:55:58;63.17;;;22.45;;
25481;SDS011;13395;50.752;4.268;2022-12-13T00:58:23;66.00;;;24.55;;
25481;SDS011;13395;50.752;4.268;2022-12-13T01:00:49;58.95;;;24.17;;
25481;SDS011;13395;50.752;4.268;2022-12-13T01:03:15;65.43;;;24.60;;
25481;SDS011;13395;50.752;4.268;2022-12-13T01:05:49;65.45;;;23.30;;
25481;SDS011;13395;50.752;4.268;2022-12-13T01:08:15;66.45;;;24.80;;
25481;SDS011;13395;50.752;4.268;2022-12-13T01:10:42;56.50;;;23.92;;
25481;SDS011;13395;50.752;4.268;2022-12-13T01:13:11;58.72;;;21.83;;
25481;SDS011;13395;50.752;4.268;2022-12-13T01:15:41;53.72;;;21.90;;
25481;SDS011;13395;50.752;4.268;2022-12-13T01:18:09;59.08;;;21.30;;
25481;SDS011;13395;50.752;4.268;2022-12-13T01:20:35;53.15;;;20.92;;
25481;SDS011;13395;50.752;4.268;2022-12-13T01:23:01;59.47;;;22.20;;
25481;SDS011;13395;50.752;4.268;2022-12-13T01:25:26;57.35;;;21.23;;
25481;SDS011;13395;50.752;4.268;2022-12-13T01:27:52;51.03;;;18.95;;
25481;SDS011;13395;50.752;4.268;2022-12-13T01:30:17;45.30;;;18.55;;
25481;SDS011;13395;50.752;4.268;2022-12-13T01:32:43;44.20;;;18.48;;
25481;SDS011;13395;50.752;4.268;2022-12-13T01:35:09;55.10;;;18.27;;
25481;SDS011;13395;50.752;4.268;2022-12-13T01:37:34;47.35;;;19.55;;
25481;SDS011;13395;50.752;4.268;2022-12-13T01:40:01;48.53;;;21.35;;
25481;SDS011;13395;50.752;4.268;2022-12-13T01:42:27;52.28;;;20.52;;
25481;SDS011;13395;50.752;4.268;2022-12-13T01:47:21;51.20;;;21.10;;
25481;SDS011;13395;50.752;4.268;2022-12-13T01:49:55;43.95;;;19.15;;
25481;SDS011;13395;50.752;4.268;2022-12-13T01:52:25;45.00;;;17.27;;
25481;SDS011;13395;50.752;4.268;2022-12-13T01:54:54;43.40;;;19.13;;
25481;SDS011;13395;50.752;4.268;2022-12-13T01:57:23;46.33;;;20.17;;
25481;SDS011;13395;50.752;4.268;2022-12-13T01:59:49;45.80;;;17.83;;
25481;SDS011;13395;50.752;4.268;2022-12-13T02:02:15;42.28;;;17.92;;
25481;SDS011;13395;50.752;4.268;2022-12-13T02:04:49;41.03;;;17.35;;
25481;SDS011;13395;50.752;4.268;2022-12-13T02:07:21;39.58;;;16.10;;
25481;SDS011;13395;50.752;4.268;2022-12-13T02:09:51;37.38;;;16.10;;
25481;SDS011;13395;50.752;4.268;2022-12-13T02:12:21;43.38;;;18.65;;
25481;SDS011;13395;50.752;4.268;2022-12-13T02:14:47;48.85;;;17.63;;
25481;SDS011;13395;50.752;4.268;2022-12-13T02:17:21;43.53;;;17.15;;
25481;SDS011;13395;50.752;4.268;2022-12-13T02:30:40;46.05;;;17.23;;
25481;SDS011;13395;50.752;4.268;2022-12-13T02:38:13;43.70;;;16.63;;
25481;SDS011;13395;50.752;4.268;2022-12-13T02:40:50;41.58;;;16.77;;
25481;SDS011;13395;50.752;4.268;2022-12-13T02:43:34;44.33;;;16.33;;
25481;SDS011;13395;50.752;4.268;2022-12-13T02:46:06;47.55;;;18.42;;
25481;SDS011;13395;50.752;4.268;2022-12-13T02:48:35;40.10;;;16.60;;
25481;SDS011;13395;50.752;4.268;2022-12-13T02:51:03;47.85;;;17.42;;
25481;SDS011;13395;50.752;4.268;2022-12-13T02:53:32;40.17;;;16.15;;
25481;SDS011;13395;50.752;4.268;2022-12-13T02:56:00;40.88;;;17.33;;
25481;SDS011;13395;50.752;4.268;2022-12-13T02:58:28;41.90;;;18.45;;
25481;SDS011;13395;50.752;4.268;2022-12-13T03:01:02;45.40;;;17.35;;
25481;SDS011;13395;50.752;4.268;2022-12-13T03:03:55;41.90;;;17.15;;
25481;SDS011;13395;50.752;4.268;2022-12-13T03:09:18;40.38;;;16.65;;
25481;SDS011;13395;50.752;4.268;2022-12-13T03:15:01;46.63;;;16.35;;
25481;SDS011;13395;50.752;4.268;2022-12-13T03:17:51;40.15;;;16.38;;
25481;SDS011;13395;50.752;4.268;2022-12-13T03:20:27;42.10;;;16.10;;
25481;SDS011;13395;50.752;4.268;2022-12-13T03:22:54;40.10;;;16.42;;
25481;SDS011;13395;50.752;4.268;2022-12-13T03:25:22;41.95;;;16.05;;
25481;SDS011;13395;50.752;4.268;2022-12-13T03:27:50;36.78;;;15.65;;
25481;SDS011;13395;50.752;4.268;2022-12-13T03:30:16;39.50;;;15.07;;
25481;SDS011;13395;50.752;4.268;2022-12-13T03:32:42;42.78;;;15.63;;
25481;SDS011;13395;50.752;4.268;2022-12-13T03:35:07;41.72;;;16.40;;
25481;SDS011;13395;50.752;4.268;2022-12-13T03:37:33;33.03;;;14.88;;
25481;SDS011;13395;50.752;4.268;2022-12-13T03:39:59;35.55;;;14.57;;
25481;SDS011;13395;50.752;4.268;2022-12-13T03:42:25;40.05;;;15.52;;
25481;SDS011;13395;50.752;4.268;2022-12-13T03:44:50;38.42;;;15.63;;
25481;SDS011;13395;50.752;4.268;2022-12-13T03:47:16;41.20;;;15.00;;
25481;SDS011;13395;50.752;4.268;2022-12-13T03:49:42;35.78;;;14.93;;
25481;SDS011;13395;50.752;4.268;2022-12-13T03:52:08;33.25;;;14.98;;
25481;SDS011;13395;50.752;4.268;2022-12-13T03:54:33;37.95;;;16.23;;
25481;SDS011;13395;50.752;4.268;2022-12-13T03:56:59;42.58;;;16.17;;
25481;SDS011;13395;50.752;4.268;2022-12-13T03:59:25;40.08;;;15.55;;
25481;SDS011;13395;50.752;4.268;2022-12-13T04:01:51;37.88;;;14.73;;
25481;SDS011;13395;50.752;4.268;2022-12-13T04:04:17;40.35;;;15.95;;
25481;SDS011;13395;50.752;4.268;2022-12-13T04:06:42;36.78;;;15.82;;
25481;SDS011;13395;50.752;4.268;2022-12-13T04:09:08;37.83;;;15.50;;
25481;SDS011;13395;50.752;4.268;2022-12-13T04:11:34;42.47;;;15.15;;
25481;SDS011;13395;50.752;4.268;2022-12-13T04:14:18;29.85;;;14.25;;
25481;SDS011;13395;50.752;4.268;2022-12-13T04:16:44;34.10;;;14.27;;
25481;SDS011;13395;50.752;4.268;2022-12-13T04:19:09;35.80;;;14.68;;
25481;SDS011;13395;50.752;4.268;2022-12-13T04:21:35;37.45;;;14.98;;
25481;SDS011;13395;50.752;4.268;2022-12-13T04:24:01;27.98;;;13.88;;
25481;SDS011;13395;50.752;4.268;2022-12-13T04:26:27;26.33;;;13.88;;
25481;SDS011;13395;50.752;4.268;2022-12-13T04:28:52;33.03;;;13.43;;
25481;SDS011;13395;50.752;4.268;2022-12-13T04:31:18;35.63;;;15.68;;
25481;SDS011;13395;50.752;4.268;2022-12-13T04:33:43;28.48;;;12.88;;
25481;SDS011;13395;50.752;4.268;2022-12-13T04:36:09;31.27;;;14.15;;
25481;SDS011;13395;50.752;4.268;2022-12-13T04:38:35;33.05;;;14.10;;
25481;SDS011;13395;50.752;4.268;2022-12-13T04:41:05;29.63;;;12.88;;
25481;SDS011;13395;50.752;4.268;2022-12-13T04:43:31;33.35;;;14.50;;
25481;SDS011;13395;50.752;4.268;2022-12-13T04:45:57;35.40;;;13.02;;
25481;SDS011;13395;50.752;4.268;2022-12-13T04:48:23;37.28;;;13.57;;
25481;SDS011;13395;50.752;4.268;2022-12-13T04:50:48;30.88;;;13.63;;
25481;SDS011;13395;50.752;4.268;2022-12-13T04:53:14;31.27;;;14.00;;
25481;SDS011;13395;50.752;4.268;2022-12-13T04:55:42;35.38;;;15.18;;
25481;SDS011;13395;50.752;4.268;2022-12-13T04:58:08;26.92;;;12.48;;
25481;SDS011;13395;50.752;4.268;2022-12-13T05:00:33;32.00;;;14.52;;
25481;SDS011;13395;50.752;4.268;2022-12-13T05:02:59;30.35;;;13.93;;
25481;SDS011;13395;50.752;4.268;2022-12-13T05:05:24;27.40;;;13.98;;
25481;SDS011;13395;50.752;4.268;2022-12-13T05:07:50;27.90;;;13.23;;
25481;SDS011;13395;50.752;4.268;2022-12-13T05:10:16;27.80;;;12.50;;
25481;SDS011;13395;50.752;4.268;2022-12-13T05:12:41;29.30;;;13.65;;
25481;SDS011;13395;50.752;4.268;2022-12-13T05:15:07;29.20;;;12.90;;
25481;SDS011;13395;50.752;4.268;2022-12-13T05:17:33;33.95;;;14.20;;
25481;SDS011;13395;50.752;4.268;2022-12-13T05:19:59;25.88;;;12.60;;
25481;SDS011;13395;50.752;4.268;2022-12-13T05:22:24;29.38;;;13.60;;
25481;SDS011;13395;50.752;4.268;2022-12-13T05:24:50;24.30;;;12.77;;
25481;SDS011;13395;50.752;4.268;2022-12-13T05:27:16;28.83;;;12.90;;
25481;SDS011;13395;50.752;4.268;2022-12-13T05:29:42;29.15;;;13.48;;
25481;SDS011;13395;50.752;4.268;2022-12-13T05:32:07;33.50;;;14.73;;
25481;SDS011;13395;50.752;4.268;2022-12-13T05:34:33;32.15;;;14.32;;
25481;SDS011;13395;50.752;4.268;2022-12-13T05:36:59;31.40;;;15.07;;
25481;SDS011;13395;50.752;4.268;2022-12-13T05:39:24;36.83;;;15.05;;
25481;SDS011;13395;50.752;4.268;2022-12-13T05:41:50;35.97;;;15.88;;
25481;SDS011;13395;50.752;4.268;2022-12-13T05:44:16;38.35;;;18.02;;
25481;SDS011;13395;50.752;4.268;2022-12-13T05:46:41;37.47;;;15.75;;
25481;SDS011;13395;50.752;4.268;2022-12-13T05:49:07;35.85;;;15.65;;
25481;SDS011;13395;50.752;4.268;2022-12-13T05:51:33;40.95;;;17.58;;
25481;SDS011;13395;50.752;4.268;2022-12-13T05:53:58;38.13;;;15.48;;
25481;SDS011;13395;50.752;4.268;2022-12-13T05:56:25;38.78;;;14.90;;
25481;SDS011;13395;50.752;4.268;2022-12-13T05:58:50;39.83;;;16.20;;
25481;SDS011;13395;50.752;4.268;2022-12-13T06:01:18;39.08;;;14.68;;
25481;SDS011;13395;50.752;4.268;2022-12-13T06:03:43;32.95;;;15.40;;
25481;SDS011;13395;50.752;4.268;2022-12-13T06:06:10;30.85;;;15.63;;
25481;SDS011;13395;50.752;4.268;2022-12-13T06:08:36;31.15;;;14.90;;
25481;SDS011;13395;50.752;4.268;2022-12-13T06:11:03;36.80;;;15.25;;
25481;SDS011;13395;50.752;4.268;2022-12-13T06:13:29;29.65;;;13.93;;
25481;SDS011;13395;50.752;4.268;2022-12-13T06:15:59;33.75;;;16.13;;
25481;SDS011;13395;50.752;4.268;2022-12-13T06:18:30;39.50;;;15.20;;
25481;SDS011;13395;50.752;4.268;2022-12-13T06:20:57;34.33;;;14.93;;
25481;SDS011;13395;50.752;4.268;2022-12-13T06:23:25;30.67;;;13.40;;
25481;SDS011;13395;50.752;4.268;2022-12-13T06:25:51;35.60;;;14.88;;
25481;SDS011;13395;50.752;4.268;2022-12-13T06:28:17;30.70;;;14.07;;
25481;SDS011;13395;50.752;4.268;2022-12-13T06:30:42;41.25;;;15.13;;
25481;SDS011;13395;50.752;4.268;2022-12-13T06:33:08;36.25;;;15.00;;
25481;SDS011;13395;50.752;4.268;2022-12-13T06:35:34;35.25;;;15.45;;
25481;SDS011;13395;50.752;4.268;2022-12-13T06:38:00;31.42;;;15.23;;
25481;SDS011;13395;50.752;4.268;2022-12-13T06:40:26;35.30;;;15.18;;
25481;SDS011;13395;50.752;4.268;2022-12-13T06:42:51;36.50;;;15.20;;
25481;SDS011;13395;50.752;4.268;2022-12-13T06:45:17;43.50;;;17.70;;
25481;SDS011;13395;50.752;4.268;2022-12-13T06:47:42;42.60;;;15.13;;
25481;SDS011;13395;50.752;4.268;2022-12-13T06:50:09;32.58;;;16.48;;
25481;SDS011;13395;50.752;4.268;2022-12-13T06:52:35;35.28;;;16.35;;
25481;SDS011;13395;50.752;4.268;2022-12-13T06:55:01;32.78;;;15.75;;
25481;SDS011;13395;50.752;4.268;2022-12-13T06:57:27;41.55;;;16.83;;
25481;SDS011;13395;50.752;4.268;2022-12-13T06:59:53;41.97;;;15.77;;
25481;SDS011;13395;50.752;4.268;2022-12-13T07:02:19;41.92;;;16.67;;
25481;SDS011;13395;50.752;4.268;2022-12-13T07:04:44;49.63;;;16.67;;
25481;SDS011;13395;50.752;4.268;2022-12-13T07:07:10;32.60;;;15.20;;
25481;SDS011;13395;50.752;4.268;2022-12-13T07:09:35;39.97;;;16.40;;
25481;SDS011;13395;50.752;4.268;2022-12-13T07:12:01;43.78;;;16.15;;
25481;SDS011;13395;50.752;4.268;2022-12-13T07:14:27;39.90;;;16.42;;
25481;SDS011;13395;50.752;4.268;2022-12-13T07:16:52;45.70;;;18.15;;
25481;SDS011;13395;50.752;4.268;2022-12-13T07:19:18;43.40;;;17.95;;
25481;SDS011;13395;50.752;4.268;2022-12-13T07:21:44;38.28;;;17.02;;
25481;SDS011;13395;50.752;4.268;2022-12-13T07:24:09;43.70;;;16.00;;
25481;SDS011;13395;50.752;4.268;2022-12-13T07:26:35;40.45;;;17.20;;
25481;SDS011;13395;50.752;4.268;2022-12-13T07:29:02;37.85;;;17.13;;
25481;SDS011;13395;50.752;4.268;2022-12-13T07:31:28;41.67;;;15.68;;
25481;SDS011;13395;50.752;4.268;2022-12-13T07:33:53;46.90;;;17.38;;
25481;SDS011;13395;50.752;4.268;2022-12-13T07:36:20;41.22;;;17.90;;
25481;SDS011;13395;50.752;4.268;2022-12-13T07:38:53;39.42;;;16.17;;
25481;SDS011;13395;50.752;4.268;2022-12-13T07:41:21;38.75;;;16.27;;
25481;SDS011;13395;50.752;4.268;2022-12-13T07:43:48;41.40;;;16.73;;
25481;SDS011;13395;50.752;4.268;2022-12-13T07:46:13;38.35;;;16.63;;
25481;SDS011;13395;50.752;4.268;2022-12-13T07:48:39;38.42;;;17.42;;
25481;SDS011;13395;50.752;4.268;2022-12-13T07:51:06;39.83;;;17.73;;
25481;SDS011;13395;50.752;4.268;2022-12-13T07:53:35;41.15;;;17.27;;
25481;SDS011;13395;50.752;4.268;2022-12-13T07:56:02;47.08;;;18.25;;
25481;SDS011;13395;50.752;4.268;2022-12-13T07:58:28;54.88;;;18.98;;
25481;SDS011;13395;50.752;4.268;2022-12-13T08:00:57;47.15;;;19.05;;
25481;SDS011;13395;50.752;4.268;2022-12-13T08:03:27;48.60;;;20.42;;
25481;SDS011;13395;50.752;4.268;2022-12-13T08:05:57;59.03;;;23.48;;
25481;SDS011;13395;50.752;4.268;2022-12-13T08:08:24;50.20;;;21.55;;
25481;SDS011;13395;50.752;4.268;2022-12-13T08:10:50;53.95;;;22.60;;
25481;SDS011;13395;50.752;4.268;2022-12-13T08:13:15;52.38;;;19.85;;
25481;SDS011;13395;50.752;4.268;2022-12-13T08:15:41;51.15;;;20.98;;
25481;SDS011;13395;50.752;4.268;2022-12-13T08:18:07;54.17;;;20.20;;
25481;SDS011;13395;50.752;4.268;2022-12-13T08:20:32;45.85;;;18.35;;
25481;SDS011;13395;50.752;4.268;2022-12-13T08:22:58;50.67;;;20.02;;
25481;SDS011;13395;50.752;4.268;2022-12-13T08:25:24;47.35;;;20.52;;
25481;SDS011;13395;50.752;4.268;2022-12-13T08:27:50;44.25;;;20.42;;
25481;SDS011;13395;50.752;4.268;2022-12-13T08:30:16;47.00;;;19.27;;
25481;SDS011;13395;50.752;4.268;2022-12-13T08:32:43;44.90;;;18.65;;
25481;SDS011;13395;50.752;4.268;2022-12-13T08:35:09;45.78;;;19.73;;
25481;SDS011;13395;50.752;4.268;2022-12-13T08:37:35;39.80;;;17.23;;
25481;SDS011;13395;50.752;4.268;2022-12-13T08:40:00;45.88;;;18.17;;
25481;SDS011;13395;50.752;4.268;2022-12-13T08:42:28;40.38;;;17.58;;
25481;SDS011;13395;50.752;4.268;2022-12-13T08:44:53;42.50;;;17.25;;
25481;SDS011;13395;50.752;4.268;2022-12-13T08:47:20;39.55;;;16.88;;
25481;SDS011;13395;50.752;4.268;2022-12-13T08:49:47;36.40;;;16.73;;
25481;SDS011;13395;50.752;4.268;2022-12-13T08:52:12;38.85;;;16.48;;
25481;SDS011;13395;50.752;4.268;2022-12-13T08:54:38;37.17;;;17.85;;
25481;SDS011;13395;50.752;4.268;2022-12-13T08:57:03;39.35;;;17.58;;
25481;SDS011;13395;50.752;4.268;2022-12-13T08:59:31;51.47;;;19.40;;
25481;SDS011;13395;50.752;4.268;2022-12-13T09:01:56;39.35;;;17.20;;
25481;SDS011;13395;50.752;4.268;2022-12-13T09:04:22;39.90;;;16.98;;
25481;SDS011;13395;50.752;4.268;2022-12-13T09:06:48;51.55;;;17.65;;
25481;SDS011;13395;50.752;4.268;2022-12-13T09:09:13;34.30;;;15.85;;
25481;SDS011;13395;50.752;4.268;2022-12-13T09:11:39;40.70;;;18.00;;
25481;SDS011;13395;50.752;4.268;2022-12-13T09:14:05;42.30;;;17.55;;
25481;SDS011;13395;50.752;4.268;2022-12-13T09:16:31;36.92;;;15.68;;
25481;SDS011;13395;50.752;4.268;2022-12-13T09:19:00;38.58;;;16.67;;
25481;SDS011;13395;50.752;4.268;2022-12-13T09:21:26;38.72;;;16.55;;
25481;SDS011;13395;50.752;4.268;2022-12-13T09:23:52;32.92;;;16.42;;
25481;SDS011;13395;50.752;4.268;2022-12-13T09:26:18;30.95;;;15.45;;
25481;SDS011;13395;50.752;4.268;2022-12-13T09:28:45;34.22;;;15.70;;
25481;SDS011;13395;50.752;4.268;2022-12-13T09:31:11;28.40;;;14.57;;
25481;SDS011;13395;50.752;4.268;2022-12-13T09:33:39;31.42;;;14.23;;
25481;SDS011;13395;50.752;4.268;2022-12-13T09:36:06;29.88;;;13.90;;
25481;SDS011;13395;50.752;4.268;2022-12-13T09:38:33;28.75;;;13.85;;
25481;SDS011;13395;50.752;4.268;2022-12-13T09:41:02;24.38;;;11.80;;
25481;SDS011;13395;50.752;4.268;2022-12-13T09:43:43;26.88;;;11.95;;
25481;SDS011;13395;50.752;4.268;2022-12-13T09:46:13;24.40;;;12.43;;
25481;SDS011;13395;50.752;4.268;2022-12-13T09:48:47;26.90;;;11.45;;
25481;SDS011;13395;50.752;4.268;2022-12-13T09:51:14;26.08;;;12.20;;
25481;SDS011;13395;50.752;4.268;2022-12-13T09:53:39;24.83;;;13.05;;
25481;SDS011;13395;50.752;4.268;2022-12-13T09:56:08;22.17;;;12.45;;
25481;SDS011;13395;50.752;4.268;2022-12-13T09:58:36;24.83;;;10.93;;
25481;SDS011;13395;50.752;4.268;2022-12-13T10:01:03;20.80;;;11.65;;
25481;SDS011;13395;50.752;4.268;2022-12-13T10:03:29;21.20;;;11.50;;
25481;SDS011;13395;50.752;4.268;2022-12-13T10:05:56;27.45;;;12.75;;
25481;SDS011;13395;50.752;4.268;2022-12-13T10:08:28;18.15;;;10.55;;
25481;SDS011;13395;50.752;4.268;2022-12-13T10:10:59;16.80;;;9.85;;
25481;SDS011;13395;50.752;4.268;2022-12-13T10:16:06;19.73;;;11.82;;
25481;SDS011;13395;50.752;4.268;2022-12-13T10:18:39;18.55;;;10.45;;
25481;SDS011;13395;50.752;4.268;2022-12-13T10:21:17;21.60;;;11.38;;
25481;SDS011;13395;50.752;4.268;2022-12-13T10:23:50;20.70;;;11.20;;
25481;SDS011;13395;50.752;4.268;2022-12-13T10:26:16;24.88;;;12.38;;
25481;SDS011;13395;50.752;4.268;2022-12-13T10:28:41;18.13;;;10.77;;
25481;SDS011;13395;50.752;4.268;2022-12-13T10:31:14;19.40;;;10.63;;
25481;SDS011;13395;50.752;4.268;2022-12-13T10:33:43;20.92;;;12.05;;
25481;SDS011;13395;50.752;4.268;2022-12-13T10:36:34;20.30;;;11.18;;
25481;SDS011;13395;50.752;4.268;2022-12-13T10:39:07;23.95;;;11.38;;
25481;SDS011;13395;50.752;4.268;2022-12-13T10:41:44;22.05;;;10.88;;
25481;SDS011;13395;50.752;4.268;2022-12-13T10:46:51;25.42;;;12.20;;
25481;SDS011;13395;50.752;4.268;2022-12-13T10:49:45;21.48;;;12.05;;
25481;SDS011;13395;50.752;4.268;2022-12-13T10:52:53;19.55;;;10.60;;
25481;SDS011;13395;50.752;4.268;2022-12-13T10:55:05;20.80;;;10.43;;
25481;SDS011;13395;50.752;4.268;2022-12-13T10:57:52;21.20;;;11.25;;
25481;SDS011;13395;50.752;4.268;2022-12-13T11:00:30;20.10;;;11.55;;
25481;SDS011;13395;50.752;4.268;2022-12-13T11:02:57;19.83;;;11.77;;
25481;SDS011;13395;50.752;4.268;2022-12-13T11:05:27;17.67;;;11.13;;
25481;SDS011;13395;50.752;4.268;2022-12-13T11:08:10;21.67;;;11.00;;
25481;SDS011;13395;50.752;4.268;2022-12-13T11:10:43;20.83;;;11.80;;
25481;SDS011;13395;50.752;4.268;2022-12-13T11:13:17;20.13;;;12.43;;
25481;SDS011;13395;50.752;4.268;2022-12-13T11:16:01;20.88;;;10.52;;
25481;SDS011;13395;50.752;4.268;2022-12-13T11:18:29;25.00;;;10.98;;
25481;SDS011;13395;50.752;4.268;2022-12-13T11:21:01;16.35;;;10.38;;
25481;SDS011;13395;50.752;4.268;2022-12-13T11:23:32;21.13;;;12.10;;
25481;SDS011;13395;50.752;4.268;2022-12-13T11:26:10;17.95;;;10.68;;
25481;SDS011;13395;50.752;4.268;2022-12-13T11:34:17;23.02;;;12.40;;
25481;SDS011;13395;50.752;4.268;2022-12-13T11:37:02;20.38;;;11.80;;
25481;SDS011;13395;50.752;4.268;2022-12-13T11:39:47;21.02;;;12.05;;
25481;SDS011;13395;50.752;4.268;2022-12-13T11:47:41;20.13;;;11.00;;
25481;SDS011;13395;50.752;4.268;2022-12-13T11:50:56;23.08;;;12.48;;
25481;SDS011;13395;50.752;4.268;2022-12-13T11:53:21;22.65;;;11.90;;
25481;SDS011;13395;50.752;4.268;2022-12-13T11:56:00;25.23;;;14.02;;
25481;SDS011;13395;50.752;4.268;2022-12-13T12:01:15;18.13;;;11.45;;
25481;SDS011;13395;50.752;4.268;2022-12-13T12:03:47;20.27;;;12.15;;
25481;SDS011;13395;50.752;4.268;2022-12-13T12:06:17;22.15;;;11.88;;
25481;SDS011;13395;50.752;4.268;2022-12-13T12:08:58;21.38;;;11.68;;
25481;SDS011;13395;50.752;4.268;2022-12-13T12:14:13;27.27;;;14.30;;
25481;SDS011;13395;50.752;4.268;2022-12-13T12:16:55;23.63;;;12.73;;
25481;SDS011;13395;50.752;4.268;2022-12-13T12:19:29;24.23;;;12.00;;
25481;SDS011;13395;50.752;4.268;2022-12-13T12:38:13;21.20;;;11.48;;
25481;SDS011;13395;50.752;4.268;2022-12-13T12:43:11;23.10;;;11.68;;
25481;SDS011;13395;50.752;4.268;2022-12-13T12:51:13;22.38;;;11.63;;
25481;SDS011;13395;50.752;4.268;2022-12-13T12:54:05;19.17;;;10.25;;
25481;SDS011;13395;50.752;4.268;2022-12-13T12:56:50;25.15;;;11.68;;
25481;SDS011;13395;50.752;4.268;2022-12-13T12:59:30;21.45;;;11.45;;
25481;SDS011;13395;50.752;4.268;2022-12-13T13:02:31;21.02;;;10.60;;
25481;SDS011;13395;50.752;4.268;2022-12-13T13:05:07;27.98;;;12.45;;
25481;SDS011;13395;50.752;4.268;2022-12-13T13:07:41;23.20;;;10.90;;
25481;SDS011;13395;50.752;4.268;2022-12-13T13:10:12;20.00;;;11.43;;
25481;SDS011;13395;50.752;4.268;2022-12-13T13:12:39;22.25;;;11.23;;
25481;SDS011;13395;50.752;4.268;2022-12-13T13:17:57;22.42;;;11.18;;
25481;SDS011;13395;50.752;4.268;2022-12-13T13:20:26;24.45;;;11.40;;
25481;SDS011;13395;50.752;4.268;2022-12-13T13:22:56;19.60;;;11.40;;
25481;SDS011;13395;50.752;4.268;2022-12-13T13:25:32;26.60;;;10.93;;
25481;SDS011;13395;50.752;4.268;2022-12-13T13:28:00;17.52;;;10.48;;
25481;SDS011;13395;50.752;4.268;2022-12-13T13:30:29;19.98;;;11.02;;
25481;SDS011;13395;50.752;4.268;2022-12-13T13:32:55;21.48;;;12.43;;
25481;SDS011;13395;50.752;4.268;2022-12-13T13:37:57;21.02;;;11.18;;
25481;SDS011;13395;50.752;4.268;2022-12-13T13:40:31;25.58;;;12.57;;
25481;SDS011;13395;50.752;4.268;2022-12-13T13:45:29;18.45;;;11.82;;
25481;SDS011;13395;50.752;4.268;2022-12-13T13:51:24;20.77;;;11.88;;
25481;SDS011;13395;50.752;4.268;2022-12-13T14:05:02;27.05;;;12.15;;
25481;SDS011;13395;50.752;4.268;2022-12-13T14:10:18;27.30;;;12.52;;
25481;SDS011;13395;50.752;4.268;2022-12-13T14:24:14;25.85;;;12.15;;
25481;SDS011;13395;50.752;4.268;2022-12-13T14:27:00;28.75;;;13.25;;
25481;SDS011;13395;50.752;4.268;2022-12-13T14:29:31;30.80;;;12.70;;
25481;SDS011;13395;50.752;4.268;2022-12-13T14:32:03;27.52;;;13.05;;
25481;SDS011;13395;50.752;4.268;2022-12-13T14:34:46;33.17;;;12.95;;
25481;SDS011;13395;50.752;4.268;2022-12-13T14:39:55;28.75;;;13.27;;
25481;SDS011;13395;50.752;4.268;2022-12-13T14:48:02;28.95;;;14.20;;
25481;SDS011;13395;50.752;4.268;2022-12-13T14:50:32;24.10;;;13.57;;
25481;SDS011;13395;50.752;4.268;2022-12-13T14:53:00;32.45;;;14.02;;
25481;SDS011;13395;50.752;4.268;2022-12-13T14:55:33;36.22;;;15.65;;
25481;SDS011;13395;50.752;4.268;2022-12-13T14:58:02;32.60;;;15.00;;
25481;SDS011;13395;50.752;4.268;2022-12-13T15:00:39;26.33;;;13.07;;
25481;SDS011;13395;50.752;4.268;2022-12-13T15:03:05;30.38;;;13.98;;
25481;SDS011;13395;50.752;4.268;2022-12-13T15:05:32;34.83;;;15.60;;
25481;SDS011;13395;50.752;4.268;2022-12-13T15:08:10;36.35;;;15.77;;
25481;SDS011;13395;50.752;4.268;2022-12-13T15:10:47;26.92;;;14.25;;
25481;SDS011;13395;50.752;4.268;2022-12-13T15:16:00;35.45;;;15.20;;
25481;SDS011;13395;50.752;4.268;2022-12-13T15:18:29;32.13;;;14.52;;
25481;SDS011;13395;50.752;4.268;2022-12-13T15:20:56;36.65;;;16.05;;
25481;SDS011;13395;50.752;4.268;2022-12-13T15:23:23;30.40;;;15.52;;
25481;SDS011;13395;50.752;4.268;2022-12-13T15:25:57;41.03;;;16.70;;
25481;SDS011;13395;50.752;4.268;2022-12-13T15:28:27;40.30;;;17.15;;
25481;SDS011;13395;50.752;4.268;2022-12-13T15:30:56;37.13;;;16.23;;
25481;SDS011;13395;50.752;4.268;2022-12-13T15:33:23;42.00;;;16.90;;
25481;SDS011;13395;50.752;4.268;2022-12-13T15:41:18;35.13;;;15.93;;
25481;SDS011;13395;50.752;4.268;2022-12-13T15:43:47;33.65;;;16.67;;
25481;SDS011;13395;50.752;4.268;2022-12-13T15:46:36;45.25;;;18.67;;
25481;SDS011;13395;50.752;4.268;2022-12-13T15:49:05;41.30;;;17.55;;
25481;SDS011;13395;50.752;4.268;2022-12-13T15:52:02;42.95;;;16.40;;
25481;SDS011;13395;50.752;4.268;2022-12-13T15:54:30;40.17;;;15.75;;
25481;SDS011;13395;50.752;4.268;2022-12-13T15:56:58;43.95;;;16.98;;
25481;SDS011;13395;50.752;4.268;2022-12-13T15:59:28;39.88;;;17.85;;
25481;SDS011;13395;50.752;4.268;2022-12-13T16:01:59;40.92;;;16.65;;
25481;SDS011;13395;50.752;4.268;2022-12-13T16:04:26;39.63;;;16.90;;
25481;SDS011;13395;50.752;4.268;2022-12-13T16:06:59;38.30;;;16.50;;
25481;SDS011;13395;50.752;4.268;2022-12-13T16:09:26;41.13;;;16.83;;
25481;SDS011;13395;50.752;4.268;2022-12-13T16:11:59;38.80;;;16.52;;
25481;SDS011;13395;50.752;4.268;2022-12-13T16:17:04;39.75;;;17.33;;
25481;SDS011;13395;50.752;4.268;2022-12-13T16:19:39;39.83;;;17.75;;
25481;SDS011;13395;50.752;4.268;2022-12-13T16:22:05;39.22;;;16.67;;
25481;SDS011;13395;50.752;4.268;2022-12-13T16:24:30;42.80;;;19.40;;
25481;SDS011;13395;50.752;4.268;2022-12-13T16:26:56;46.20;;;18.30;;
25481;SDS011;13395;50.752;4.268;2022-12-13T16:29:21;41.45;;;17.92;;
25481;SDS011;13395;50.752;4.268;2022-12-13T16:31:47;43.45;;;18.25;;
25481;SDS011;13395;50.752;4.268;2022-12-13T16:34:13;39.60;;;19.35;;
25481;SDS011;13395;50.752;4.268;2022-12-13T16:36:43;47.25;;;18.77;;
25481;SDS011;13395;50.752;4.268;2022-12-13T16:39:10;48.25;;;21.15;;